createdAt,value
2018-09-05T00:02:22.709Z,17.39
2018-09-05T00:07:26.270Z,17.36
2018-09-05T00:12:30.023Z,17.22
2018-09-05T00:17:33.670Z,16.94
2018-09-05T00:22:37.311Z,16.92
2018-09-05T00:27:41.637Z,17.00
2018-09-05T00:32:45.366Z,17.09
2018-09-05T00:37:48.935Z,16.95
2018-09-05T00:42:52.724Z,16.91
2018-09-05T00:47:56.912Z,16.84
2018-09-05T00:53:00.937Z,16.76
2018-09-05T00:58:04.439Z,16.57
2018-09-05T01:03:07.981Z,16.66
2018-09-05T01:08:11.617Z,16.66
2018-09-05T01:13:15.249Z,16.63
2018-09-05T01:18:18.790Z,16.62
2018-09-05T01:23:22.381Z,16.59
2018-09-05T01:28:26.128Z,16.38
2018-09-05T01:33:29.878Z,15.98
2018-09-05T01:38:33.357Z,16.15
2018-09-05T01:43:36.942Z,16.24
2018-09-05T01:48:40.629Z,16.34
2018-09-05T01:53:44.377Z,16.41
2018-09-05T01:58:48.096Z,16.35
2018-09-05T02:03:52.211Z,16.31
2018-09-05T02:08:55.685Z,16.25
2018-09-05T02:13:59.773Z,16.26
2018-09-05T02:19:03.261Z,16.23
2018-09-05T02:24:06.840Z,16.18
2018-09-05T02:29:10.646Z,16.11
2018-09-05T02:34:14.150Z,16.03
2018-09-05T02:39:18.046Z,16.00
2018-09-05T02:44:23.351Z,15.92
2018-09-05T02:49:26.944Z,15.73
2018-09-05T02:54:30.587Z,15.42
2018-09-05T02:59:34.085Z,15.36
2018-09-05T03:04:37.947Z,15.31
2018-09-05T03:09:41.609Z,15.23
2018-09-05T03:14:45.493Z,15.31
2018-09-05T03:19:49.022Z,15.39
2018-09-05T03:24:52.539Z,15.48
2018-09-05T03:29:56.011Z,15.49
2018-09-05T03:34:59.890Z,15.39
2018-09-05T03:40:03.621Z,15.39
2018-09-05T03:45:08.025Z,15.37
2018-09-05T03:50:11.506Z,15.38
2018-09-05T03:55:15.191Z,15.30
2018-09-05T04:00:34.273Z,15.27
2018-09-05T04:05:38.011Z,15.17
2018-09-05T04:10:42.030Z,15.22
2018-09-05T04:15:46.060Z,15.26
2018-09-05T04:20:49.621Z,15.25
2018-09-05T04:25:54.537Z,15.02
2018-09-05T04:30:58.137Z,14.99
2018-09-05T04:36:02.462Z,15.04
2018-09-05T04:41:06.038Z,15.04
2018-09-05T04:46:09.752Z,15.08
2018-09-05T04:51:13.983Z,15.06
2018-09-05T04:56:17.581Z,15.10
2018-09-05T05:01:21.638Z,14.98
2018-09-05T05:06:25.715Z,15.10
2018-09-05T05:11:29.237Z,15.21
2018-09-05T05:16:32.787Z,15.34
2018-09-05T05:21:36.283Z,15.26
2018-09-05T05:26:40.074Z,15.03
2018-09-05T05:31:43.626Z,15.20
2018-09-05T05:36:47.621Z,15.51
2018-09-05T05:41:51.147Z,15.39
2018-09-05T05:46:54.977Z,15.37
2018-09-05T05:51:58.612Z,15.84
2018-09-05T05:57:02.331Z,16.22
2018-09-05T06:02:06.433Z,16.27
2018-09-05T06:07:10.057Z,16.38
2018-09-05T06:12:16.289Z,16.37
2018-09-05T06:17:20.291Z,16.42
2018-09-05T06:22:23.798Z,16.63
2018-09-05T06:27:27.741Z,16.92
2018-09-05T06:32:31.241Z,17.16
2018-09-05T06:37:35.263Z,17.52
2018-09-05T06:42:39.205Z,17.81
2018-09-05T06:47:42.730Z,18.02
2018-09-05T06:52:46.257Z,18.38
2018-09-05T06:57:49.822Z,18.70
2018-09-05T07:02:53.346Z,18.99
2018-09-05T07:07:58.176Z,19.04
2018-09-05T07:13:01.688Z,18.95
2018-09-05T07:18:05.400Z,19.50
2018-09-05T07:23:08.993Z,19.62
2018-09-05T07:28:12.641Z,19.44
2018-09-05T07:33:16.206Z,19.90
2018-09-05T07:38:20.282Z,20.31
2018-09-05T07:43:23.748Z,20.50
2018-09-05T07:48:27.409Z,20.22
2018-09-05T07:53:30.935Z,20.65
2018-09-05T07:58:34.539Z,20.98
2018-09-05T08:03:38.197Z,21.47
2018-09-05T08:08:41.920Z,21.43
2018-09-05T08:13:45.677Z,21.47
2018-09-05T08:18:49.298Z,22.03
2018-09-05T08:23:54.041Z,22.23
2018-09-05T08:28:58.093Z,22.40
2018-09-05T08:34:02.012Z,22.74
2018-09-05T08:39:11.634Z,22.81
2018-09-05T08:44:15.335Z,23.03
2018-09-05T08:49:18.726Z,23.21
2018-09-05T08:54:22.172Z,23.48
2018-09-05T08:59:25.682Z,23.54
2018-09-05T09:04:29.734Z,23.66
2018-09-05T09:09:33.400Z,23.99
2018-09-05T09:14:36.923Z,24.17
2018-09-05T09:19:40.447Z,24.34
2018-09-05T09:24:45.205Z,24.60
2018-09-05T09:29:49.402Z,24.80
2018-09-05T09:34:52.899Z,24.94
2018-09-05T09:39:56.456Z,24.97
2018-09-05T09:45:00.692Z,25.11
2018-09-05T09:50:04.431Z,25.28
2018-09-05T09:55:08.653Z,25.36
2018-09-05T10:00:15.014Z,25.50
2018-09-05T10:05:23.959Z,25.29
2018-09-05T10:10:32.715Z,25.47
2018-09-05T10:15:41.529Z,25.53
2018-09-05T10:20:45.522Z,25.62
2018-09-05T10:25:49.896Z,25.77
2018-09-05T10:30:53.564Z,25.91
2018-09-05T10:35:57.817Z,26.03
2018-09-05T10:41:01.439Z,25.89
2018-09-05T10:46:05.160Z,25.89
2018-09-05T10:51:09.369Z,26.12
2018-09-05T10:56:12.975Z,26.08
2018-09-05T11:01:16.529Z,26.29
2018-09-05T11:06:20.128Z,26.08
2018-09-05T11:11:23.783Z,26.15
2018-09-05T11:16:27.270Z,26.28
2018-09-05T11:21:30.913Z,26.30
2018-09-05T11:26:34.353Z,26.26
2018-09-05T11:31:37.908Z,26.34
2018-09-05T11:36:41.518Z,26.36
2018-09-05T11:41:45.097Z,26.48
2018-09-05T11:46:48.749Z,26.80
2018-09-05T11:51:52.776Z,27.01
2018-09-05T11:56:56.364Z,26.87
2018-09-05T12:02:00.011Z,27.07
2018-09-05T12:07:03.592Z,27.17
2018-09-05T12:12:07.212Z,27.32
2018-09-05T12:17:11.745Z,27.34
2018-09-05T12:22:15.691Z,27.14
2018-09-05T12:27:19.205Z,27.11
2018-09-05T12:32:22.763Z,27.16
2018-09-05T12:37:26.229Z,27.03
2018-09-05T12:42:29.932Z,27.18
2018-09-05T12:47:33.617Z,27.23
2018-09-05T12:52:37.383Z,27.20
2018-09-05T12:57:40.867Z,27.44
2018-09-05T13:02:44.777Z,27.16
2018-09-05T13:07:48.253Z,27.01
2018-09-05T13:12:51.844Z,27.23
2018-09-05T13:17:55.441Z,27.29
2018-09-05T13:22:58.975Z,27.52
2018-09-05T13:28:02.474Z,27.26
2018-09-05T13:33:06.571Z,27.44
2018-09-05T13:38:10.792Z,27.48
2018-09-05T13:43:14.540Z,27.22
2018-09-05T13:48:18.041Z,26.92
2018-09-05T13:53:21.589Z,27.29
2018-09-05T13:58:26.849Z,27.27
2018-09-05T14:03:30.422Z,27.21
2018-09-05T14:08:33.952Z,27.23
2018-09-05T14:13:37.517Z,27.45
2018-09-05T14:18:41.325Z,27.41
2018-09-05T14:23:45.386Z,27.28
2018-09-05T14:28:49.550Z,27.56
2018-09-05T14:33:53.229Z,27.84
2018-09-05T14:38:56.731Z,27.87
2018-09-05T14:44:00.309Z,27.56
2018-09-05T14:49:03.966Z,27.61
2018-09-05T14:54:07.770Z,27.40
2018-09-05T14:59:11.429Z,27.36
2018-09-05T15:04:15.609Z,27.35
2018-09-05T15:09:19.095Z,27.20
2018-09-05T15:14:23.002Z,27.21
2018-09-05T15:19:26.766Z,27.37
2018-09-05T15:24:30.293Z,27.14
2018-09-05T15:29:34.092Z,27.08
2018-09-05T15:34:38.723Z,27.10
2018-09-05T15:39:42.478Z,26.94
2018-09-05T15:44:46.032Z,26.81
2018-09-05T15:49:49.561Z,26.75
2018-09-05T15:54:53.342Z,26.76
2018-09-05T15:59:57.059Z,26.79
2018-09-05T16:05:00.784Z,26.72
2018-09-05T16:10:04.548Z,26.76
2018-09-05T16:15:08.344Z,26.67
2018-09-05T16:20:11.970Z,26.50
2018-09-05T16:25:16.311Z,26.36
2018-09-05T16:30:27.961Z,26.17
2018-09-05T16:35:31.560Z,26.24
2018-09-05T16:40:35.005Z,25.92
2018-09-05T16:45:39.440Z,25.85
2018-09-05T16:50:43.024Z,25.61
2018-09-05T16:55:46.552Z,25.58
2018-09-05T17:00:50.223Z,25.57
2018-09-05T17:05:55.902Z,25.32
2018-09-05T17:11:00.413Z,25.26
2018-09-05T17:16:04.178Z,25.10
2018-09-05T17:21:07.984Z,25.02
2018-09-05T17:26:12.244Z,24.82
2018-09-05T17:31:15.995Z,24.69
2018-09-05T17:36:19.540Z,24.50
2018-09-05T17:41:23.544Z,24.35
2018-09-05T17:46:27.293Z,24.20
2018-09-05T17:51:31.380Z,24.05
2018-09-05T17:56:35.012Z,23.78
2018-09-05T18:01:38.892Z,23.66
2018-09-05T18:06:43.096Z,23.43
2018-09-05T18:11:46.744Z,23.30
2018-09-05T18:16:50.220Z,23.21
2018-09-05T18:21:53.833Z,23.09
2018-09-05T18:26:57.347Z,22.87
2018-09-05T18:32:00.857Z,22.69
2018-09-05T18:37:04.471Z,22.49
2018-09-05T18:42:07.981Z,22.25
2018-09-05T18:47:11.515Z,22.19
2018-09-05T18:52:15.171Z,21.96
2018-09-05T18:57:18.705Z,21.90
2018-09-05T19:02:23.569Z,21.78
2018-09-05T19:07:27.106Z,21.66
2018-09-05T19:12:30.649Z,21.50
2018-09-05T19:17:34.152Z,21.41
2018-09-05T19:22:38.095Z,21.40
2018-09-05T19:27:42.105Z,21.31
2018-09-05T19:32:46.924Z,21.20
2018-09-05T19:37:50.474Z,21.08
2018-09-05T19:42:54.041Z,21.01
2018-09-05T19:47:58.097Z,20.86
2018-09-05T19:53:01.633Z,20.78
2018-09-05T19:58:05.206Z,20.75
2018-09-05T20:03:08.748Z,20.64
2018-09-05T20:08:12.501Z,20.60
2018-09-05T20:13:16.076Z,20.50
2018-09-05T20:18:19.555Z,20.39
2018-09-05T20:23:23.213Z,20.30
2018-09-05T20:28:26.733Z,20.17
2018-09-05T20:33:30.271Z,20.06
2018-09-05T20:38:33.737Z,19.97
2018-09-05T20:43:38.002Z,19.92
2018-09-05T20:48:41.687Z,19.82
2018-09-05T20:53:45.198Z,19.76
2018-09-05T20:58:48.728Z,19.69
2018-09-05T21:03:52.531Z,19.58
2018-09-05T21:08:56.027Z,19.51
2018-09-05T21:13:59.570Z,19.34
2018-09-05T21:19:03.345Z,19.21
2018-09-05T21:24:07.556Z,19.21
2018-09-05T21:29:11.314Z,19.15
2018-09-05T21:34:14.861Z,19.07
2018-09-05T21:39:18.346Z,19.06
2018-09-05T21:44:21.886Z,19.00
2018-09-05T21:49:26.702Z,18.91
2018-09-05T21:54:30.216Z,18.86
2018-09-05T21:59:33.821Z,18.75
2018-09-05T22:04:37.329Z,18.69
2018-09-05T22:09:40.814Z,18.65
2018-09-05T22:14:44.439Z,18.62
2018-09-05T22:19:58.203Z,18.55
2018-09-05T22:25:01.736Z,18.46
2018-09-05T22:30:05.716Z,18.28
2018-09-05T22:35:09.963Z,18.28
2018-09-05T22:40:13.548Z,18.26
2018-09-05T22:47:32.329Z,17.99
2018-09-05T22:54:57.161Z,17.71
2018-09-05T23:02:50.777Z,17.46
2018-09-05T23:08:36.215Z,17.43
2018-09-05T23:13:58.444Z,17.32
2018-09-05T23:19:29.374Z,17.46
2018-09-05T23:24:32.892Z,17.56
2018-09-05T23:29:36.446Z,17.55
2018-09-05T23:34:40.041Z,17.61
2018-09-05T23:39:44.070Z,17.49
2018-09-05T23:44:48.179Z,17.37
2018-09-05T23:49:51.856Z,17.26
2018-09-05T23:54:55.335Z,17.22
2018-09-05T23:59:58.975Z,17.20
